createdAt,value
2018-03-29T00:00:19.044Z,96.00
2018-03-29T00:02:46.532Z,95.90
2018-03-29T00:05:14.431Z,95.60
2018-03-29T00:07:41.918Z,95.70
2018-03-29T00:10:09.429Z,95.80
2018-03-29T00:12:36.930Z,95.80
2018-03-29T00:15:04.452Z,96.10
2018-03-29T00:17:31.948Z,96.30
2018-03-29T00:19:59.475Z,96.40
2018-03-29T00:22:26.971Z,96.90
2018-03-29T00:24:54.454Z,97.00
2018-03-29T00:27:22.364Z,96.90
2018-03-29T00:29:49.888Z,96.90
2018-03-29T00:32:17.383Z,97.00
2018-03-29T00:34:44.888Z,97.00
2018-03-29T00:37:12.793Z,96.90
2018-03-29T00:39:40.288Z,96.90
2018-03-29T00:42:07.808Z,97.00
2018-03-29T00:44:35.311Z,96.80
2018-03-29T00:49:36.661Z,96.30
2018-03-29T00:52:04.151Z,96.40
2018-03-29T00:54:32.048Z,96.30
2018-03-29T00:56:59.539Z,96.30
2018-03-29T00:59:27.050Z,96.40
2018-03-29T01:01:54.532Z,96.50
2018-03-29T01:04:22.016Z,96.20
2018-03-29T01:06:49.519Z,96.20
2018-03-29T01:09:17.007Z,96.10
2018-03-29T01:11:44.503Z,96.20
2018-03-29T01:14:11.992Z,96.10
2018-03-29T01:16:39.483Z,96.40
2018-03-29T01:19:06.992Z,96.00
2018-03-29T01:21:34.511Z,95.90
2018-03-29T01:24:02.002Z,96.10
2018-03-29T01:26:29.901Z,96.20
2018-03-29T01:28:57.395Z,96.20
2018-03-29T01:31:24.895Z,95.50
2018-03-29T01:33:52.395Z,95.30
2018-03-29T01:36:19.881Z,95.00
2018-03-29T01:38:47.380Z,94.50
2018-03-29T01:41:14.883Z,94.70
2018-03-29T01:43:42.388Z,94.80
2018-03-29T01:46:09.944Z,94.80
2018-03-29T01:48:37.436Z,95.00
2018-03-29T01:51:04.952Z,95.30
2018-03-29T01:53:32.437Z,96.00
2018-03-29T01:55:59.953Z,96.00
2018-03-29T01:58:27.847Z,96.10
2018-03-29T02:00:55.402Z,96.10
2018-03-29T02:03:23.284Z,96.40
2018-03-29T02:05:50.771Z,96.40
2018-03-29T02:08:18.282Z,96.70
2018-03-29T02:10:45.776Z,96.80
2018-03-29T02:13:13.262Z,97.00
2018-03-29T02:15:40.775Z,97.00
2018-03-29T02:18:08.287Z,96.80
2018-03-29T02:20:36.171Z,96.60
2018-03-29T02:23:03.658Z,96.60
2018-03-29T02:25:31.163Z,97.00
2018-03-29T02:27:59.050Z,96.70
2018-03-29T02:30:26.604Z,96.70
2018-03-29T02:32:54.100Z,96.70
2018-03-29T02:35:21.591Z,96.90
2018-03-29T02:37:49.092Z,96.70
2018-03-29T02:40:16.587Z,97.00
2018-03-29T02:42:44.477Z,97.00
2018-03-29T02:45:12.241Z,97.00
2018-03-29T02:47:40.301Z,97.00
2018-03-29T02:50:07.858Z,97.00
2018-03-29T02:52:35.369Z,97.00
2018-03-29T02:55:02.876Z,97.00
2018-03-29T02:57:30.376Z,97.00
2018-03-29T02:59:58.089Z,97.00
2018-03-29T03:02:25.662Z,96.90
2018-03-29T03:04:53.160Z,96.80
2018-03-29T03:07:20.738Z,96.70
2018-03-29T03:09:48.420Z,96.40
2018-03-29T03:12:15.935Z,96.50
2018-03-29T03:14:43.588Z,96.80
2018-03-29T03:17:11.079Z,96.50
2018-03-29T03:19:38.566Z,95.80
2018-03-29T03:22:06.065Z,96.30
2018-03-29T03:24:33.551Z,96.10
2018-03-29T03:27:01.045Z,95.80
2018-03-29T03:29:28.949Z,95.90
2018-03-29T03:31:56.444Z,95.90
2018-03-29T03:34:24.016Z,95.60
2018-03-29T03:36:51.515Z,95.40
2018-03-29T03:39:19.111Z,96.00
2018-03-29T03:41:46.646Z,95.90
2018-03-29T03:44:14.186Z,95.90
2018-03-29T03:46:41.787Z,95.90
2018-03-29T03:49:10.213Z,95.90
2018-03-29T03:51:38.210Z,96.10
2018-03-29T03:54:07.464Z,96.10
2018-03-29T03:56:35.069Z,96.20
2018-03-29T03:59:02.774Z,96.20
2018-03-29T04:01:30.326Z,96.30
2018-03-29T04:04:00.025Z,96.10
2018-03-29T04:06:27.522Z,96.30
2018-03-29T04:08:55.480Z,96.30
2018-03-29T04:11:23.059Z,96.30
2018-03-29T04:13:50.552Z,95.90
2018-03-29T04:16:18.096Z,95.50
2018-03-29T04:18:45.606Z,94.80
2018-03-29T04:21:13.131Z,94.80
2018-03-29T04:23:40.646Z,95.10
2018-03-29T04:26:08.146Z,95.20
2018-03-29T04:28:35.690Z,95.30
2018-03-29T04:31:03.343Z,95.30
2018-03-29T04:33:31.304Z,95.50
2018-03-29T04:35:59.012Z,95.50
2018-03-29T04:38:26.587Z,95.80
2018-03-29T04:40:54.075Z,95.40
2018-03-29T04:43:21.595Z,95.50
2018-03-29T04:45:49.107Z,95.90
2018-03-29T04:48:16.664Z,96.00
2018-03-29T04:50:44.198Z,96.10
2018-03-29T04:53:11.819Z,96.20
2018-03-29T04:55:39.401Z,96.40
2018-03-29T04:58:07.302Z,96.10
2018-03-29T05:00:34.974Z,96.10
2018-03-29T05:03:03.012Z,96.30
2018-03-29T05:05:30.899Z,96.30
2018-03-29T05:07:58.408Z,96.30
2018-03-29T05:10:25.927Z,96.30
2018-03-29T05:12:53.437Z,96.30
2018-03-29T05:15:21.353Z,96.40
2018-03-29T05:17:48.891Z,96.40
2018-03-29T05:20:16.424Z,96.30
2018-03-29T05:22:44.374Z,95.90
2018-03-29T05:25:12.306Z,95.70
2018-03-29T05:27:39.808Z,95.70
2018-03-29T05:30:07.340Z,95.70
2018-03-29T05:32:34.920Z,95.50
2018-03-29T05:35:02.419Z,95.90
2018-03-29T05:37:30.172Z,95.80
2018-03-29T05:39:57.676Z,95.50
2018-03-29T05:42:25.666Z,95.60
2018-03-29T05:44:53.170Z,95.20
2018-03-29T05:47:20.752Z,95.30
2018-03-29T05:49:48.424Z,95.10
2018-03-29T05:52:16.016Z,94.90
2018-03-29T05:54:43.941Z,95.10
2018-03-29T05:57:11.507Z,95.10
2018-03-29T05:59:39.051Z,94.70
2018-03-29T06:02:06.556Z,94.70
2018-03-29T06:04:34.060Z,95.00
2018-03-29T06:07:01.611Z,94.80
2018-03-29T06:09:29.208Z,94.90
2018-03-29T06:11:56.713Z,95.00
2018-03-29T06:14:24.218Z,95.20
2018-03-29T06:16:51.719Z,94.80
2018-03-29T06:19:19.236Z,94.80
2018-03-29T06:21:46.756Z,94.50
2018-03-29T06:24:14.252Z,94.70
2018-03-29T06:26:41.750Z,95.00
2018-03-29T06:29:09.664Z,95.80
2018-03-29T06:31:37.163Z,95.90
2018-03-29T06:34:05.071Z,96.20
2018-03-29T06:36:32.600Z,96.20
2018-03-29T06:39:00.106Z,96.50
2018-03-29T06:41:27.627Z,96.80
2018-03-29T06:43:55.147Z,97.00
2018-03-29T06:46:22.660Z,97.00
2018-03-29T06:48:50.179Z,97.00
2018-03-29T06:51:18.123Z,97.00
2018-03-29T06:53:45.639Z,97.00
2018-03-29T06:56:13.151Z,97.00
2018-03-29T06:58:41.141Z,97.00
2018-03-29T07:01:08.656Z,97.00
2018-03-29T07:03:36.184Z,97.00
2018-03-29T07:06:03.741Z,97.00
2018-03-29T07:08:31.232Z,97.00
2018-03-29T07:10:58.764Z,97.00
2018-03-29T07:13:26.803Z,97.00
2018-03-29T07:15:54.319Z,97.00
2018-03-29T07:18:21.832Z,97.00
2018-03-29T07:20:49.409Z,97.00
2018-03-29T07:23:16.907Z,97.00
2018-03-29T07:25:44.435Z,96.90
2018-03-29T07:28:11.927Z,96.70
2018-03-29T07:30:39.901Z,96.60
2018-03-29T07:33:07.359Z,96.70
2018-03-29T07:35:35.255Z,96.50
2018-03-29T07:38:02.776Z,96.50
2018-03-29T07:40:30.667Z,95.70
2018-03-29T07:42:58.196Z,95.70
2018-03-29T07:45:26.240Z,95.50
2018-03-29T07:47:53.815Z,95.50
2018-03-29T07:50:21.790Z,95.00
2018-03-29T07:52:50.033Z,95.00
2018-03-29T07:55:17.659Z,94.90
2018-03-29T07:57:45.159Z,94.70
2018-03-29T08:00:12.729Z,94.90
2018-03-29T08:02:40.325Z,95.00
2018-03-29T08:05:08.008Z,94.40
2018-03-29T08:07:35.513Z,94.10
2018-03-29T08:10:03.051Z,94.20
2018-03-29T08:12:30.556Z,93.90
2018-03-29T08:14:58.452Z,94.00
2018-03-29T08:17:25.947Z,94.00
2018-03-29T08:19:53.446Z,93.80
2018-03-29T08:22:21.346Z,93.70
2018-03-29T08:24:48.885Z,93.70
2018-03-29T08:27:16.387Z,93.00
2018-03-29T08:29:43.888Z,92.90
2018-03-29T08:32:11.408Z,93.20
2018-03-29T08:34:38.911Z,93.00
2018-03-29T08:37:06.417Z,92.60
2018-03-29T08:39:33.926Z,92.20
2018-03-29T08:42:01.439Z,92.30
2018-03-29T08:44:28.959Z,92.30
2018-03-29T08:46:56.455Z,91.90
2018-03-29T08:49:23.951Z,91.40
2018-03-29T08:51:51.461Z,91.30
2018-03-29T08:54:24.783Z,89.70
2018-03-29T08:56:52.709Z,88.40
2018-03-29T08:59:20.232Z,88.40
2018-03-29T09:01:47.735Z,87.40
2018-03-29T09:04:15.238Z,87.20
2018-03-29T09:06:42.729Z,86.50
2018-03-29T09:09:10.233Z,86.00
2018-03-29T09:11:38.125Z,85.00
2018-03-29T09:14:05.644Z,85.00
2018-03-29T09:16:33.131Z,85.20
2018-03-29T09:19:00.662Z,85.50
2018-03-29T09:21:28.165Z,85.50
2018-03-29T09:23:55.662Z,84.60
2018-03-29T09:26:23.159Z,85.10
2018-03-29T09:28:50.678Z,85.00
2018-03-29T09:31:18.180Z,84.60
2018-03-29T09:33:45.711Z,84.50
2018-03-29T09:36:13.200Z,83.50
2018-03-29T09:38:40.723Z,83.90
2018-03-29T09:41:08.215Z,84.10
2018-03-29T09:43:35.720Z,84.60
2018-03-29T09:46:03.227Z,84.80
2018-03-29T09:48:30.735Z,85.30
2018-03-29T09:50:58.241Z,84.90
2018-03-29T09:53:25.746Z,85.00
2018-03-29T09:55:53.260Z,83.90
2018-03-29T09:58:20.773Z,83.90
2018-03-29T10:00:48.340Z,84.80
2018-03-29T10:03:15.856Z,83.10
2018-03-29T10:05:43.346Z,82.70
2018-03-29T10:08:10.856Z,82.60
2018-03-29T10:10:38.364Z,81.10
2018-03-29T10:13:06.012Z,80.00
2018-03-29T10:15:33.512Z,79.70
2018-03-29T10:18:01.037Z,80.10
2018-03-29T10:20:28.574Z,80.30
2018-03-29T10:22:56.072Z,78.50
2018-03-29T10:25:24.012Z,78.60
2018-03-29T10:27:51.534Z,78.60
2018-03-29T10:30:19.047Z,77.60
2018-03-29T10:32:46.934Z,78.30
2018-03-29T10:35:14.443Z,78.30
2018-03-29T10:37:42.105Z,78.40
2018-03-29T10:40:09.596Z,78.80
2018-03-29T10:42:37.501Z,80.20
2018-03-29T10:45:04.990Z,80.30
2018-03-29T10:47:35.877Z,79.00
2018-03-29T10:50:03.383Z,79.80
2018-03-29T10:52:30.936Z,79.10
2018-03-29T10:54:58.461Z,80.10
2018-03-29T10:57:25.959Z,79.50
2018-03-29T10:59:53.540Z,79.60
2018-03-29T11:02:21.092Z,79.60
2018-03-29T11:04:48.591Z,80.10
2018-03-29T11:07:16.084Z,80.40
2018-03-29T11:09:43.580Z,79.60
2018-03-29T11:12:11.479Z,78.60
2018-03-29T11:14:39.001Z,78.60
2018-03-29T11:17:06.900Z,76.60
2018-03-29T11:19:34.394Z,76.60
2018-03-29T11:22:01.905Z,75.10
2018-03-29T11:24:29.424Z,74.70
2018-03-29T11:26:56.936Z,73.40
2018-03-29T11:29:24.430Z,72.70
2018-03-29T11:31:51.918Z,72.10
2018-03-29T11:34:19.423Z,72.60
2018-03-29T11:36:46.915Z,73.80
2018-03-29T11:39:14.420Z,74.50
2018-03-29T11:41:41.938Z,74.40
2018-03-29T11:44:09.421Z,73.70
2018-03-29T11:46:36.930Z,73.40
2018-03-29T11:49:04.417Z,73.30
2018-03-29T11:51:32.332Z,72.90
2018-03-29T11:53:59.823Z,72.90
2018-03-29T11:56:27.311Z,73.50
2018-03-29T11:58:55.204Z,74.50
2018-03-29T12:01:22.682Z,74.50
2018-03-29T12:03:50.187Z,74.50
2018-03-29T12:06:18.061Z,73.80
2018-03-29T12:08:45.574Z,73.80
2018-03-29T12:11:13.083Z,74.20
2018-03-29T12:13:40.587Z,73.40
2018-03-29T12:16:08.140Z,72.00
2018-03-29T12:18:35.606Z,71.40
2018-03-29T12:21:03.104Z,69.90
2018-03-29T12:23:30.611Z,69.00
2018-03-29T12:25:58.099Z,68.00
2018-03-29T12:28:25.992Z,67.60
2018-03-29T12:30:53.482Z,67.60
2018-03-29T12:33:20.996Z,67.30
2018-03-29T12:35:48.883Z,68.30
2018-03-29T12:38:16.383Z,68.30
2018-03-29T12:40:43.884Z,69.10
2018-03-29T12:43:11.380Z,69.90
2018-03-29T12:45:38.883Z,71.40
2018-03-29T12:48:06.812Z,71.30
2018-03-29T12:50:34.299Z,71.30
2018-03-29T12:53:02.198Z,71.70
2018-03-29T12:55:42.709Z,71.70
2018-03-29T12:58:10.941Z,72.20
2018-03-29T13:00:38.482Z,71.60
2018-03-29T13:03:05.955Z,72.10
2018-03-29T13:05:33.455Z,72.50
2018-03-29T13:08:00.955Z,73.30
2018-03-29T13:10:28.443Z,74.30
2018-03-29T13:12:55.975Z,73.90
2018-03-29T13:15:23.485Z,73.20
2018-03-29T13:17:50.977Z,70.80
2018-03-29T13:20:18.485Z,70.30
2018-03-29T13:22:45.975Z,69.80
2018-03-29T13:25:13.929Z,70.80
2018-03-29T13:27:41.399Z,70.80
2018-03-29T13:30:09.292Z,70.80
2018-03-29T13:32:36.809Z,70.70
2018-03-29T13:35:04.719Z,70.60
2018-03-29T13:37:32.228Z,70.60
2018-03-29T13:39:59.733Z,70.60
2018-03-29T13:42:27.264Z,69.20
2018-03-29T13:44:55.181Z,66.10
2018-03-29T13:47:22.713Z,66.10
2018-03-29T13:49:50.338Z,64.50
2018-03-29T13:52:17.836Z,64.60
2018-03-29T13:54:45.336Z,65.70
2018-03-29T13:57:12.832Z,65.00
2018-03-29T13:59:40.743Z,63.00
2018-03-29T14:02:08.240Z,63.00
2018-03-29T14:04:35.741Z,61.90
2018-03-29T14:07:03.245Z,61.60
2018-03-29T14:09:30.756Z,62.00
2018-03-29T14:11:58.268Z,62.90
2018-03-29T14:14:25.779Z,63.50
2018-03-29T14:16:53.312Z,64.30
2018-03-29T14:19:20.809Z,65.20
2018-03-29T14:21:48.312Z,66.00
2018-03-29T14:24:16.213Z,67.60
2018-03-29T14:26:43.708Z,67.60
2018-03-29T14:29:11.213Z,68.40
2018-03-29T14:31:38.730Z,71.10
2018-03-29T14:34:06.231Z,73.50
2018-03-29T14:36:33.741Z,74.80
2018-03-29T14:39:01.647Z,75.10
2018-03-29T14:44:03.147Z,75.80
2018-03-29T14:46:30.662Z,76.30
2018-03-29T14:48:58.563Z,77.30
2018-03-29T14:51:26.060Z,77.30
2018-03-29T14:53:53.563Z,77.80
2018-03-29T14:56:21.055Z,77.40
2018-03-29T14:58:48.558Z,77.20
2018-03-29T15:01:16.479Z,77.80
2018-03-29T15:03:43.978Z,77.80
2018-03-29T15:06:17.481Z,78.50
2018-03-29T15:08:45.008Z,78.50
2018-03-29T15:11:14.508Z,79.00
2018-03-29T15:13:42.046Z,78.70
2018-03-29T15:16:09.548Z,78.60
2018-03-29T15:18:37.490Z,77.20
2018-03-29T15:21:05.053Z,77.20
2018-03-29T15:23:32.509Z,76.80
2018-03-29T15:26:00.004Z,76.80
2018-03-29T15:28:27.511Z,76.50
2018-03-29T15:30:55.002Z,76.10
2018-03-29T15:33:22.930Z,74.80
2018-03-29T15:35:50.430Z,74.80
2018-03-29T15:38:18.343Z,73.10
2018-03-29T15:40:45.884Z,73.00
2018-03-29T15:43:13.389Z,72.20
2018-03-29T15:45:40.918Z,72.20
2018-03-29T15:48:08.425Z,72.50
2018-03-29T15:50:36.342Z,72.20
2018-03-29T15:53:03.840Z,72.20
2018-03-29T15:55:31.338Z,72.80
2018-03-29T15:57:58.847Z,73.00
2018-03-29T16:00:26.359Z,73.40
2018-03-29T16:02:53.875Z,73.60
2018-03-29T16:05:21.767Z,76.10
2018-03-29T16:07:49.268Z,76.10
2018-03-29T16:10:16.767Z,76.40
2018-03-29T16:12:44.713Z,78.30
2018-03-29T16:15:12.332Z,78.30
2018-03-29T16:17:39.828Z,79.60
2018-03-29T16:20:07.336Z,79.70
2018-03-29T16:22:34.843Z,80.60
2018-03-29T16:25:02.776Z,80.50
2018-03-29T16:27:30.304Z,80.60
2018-03-29T16:29:57.854Z,79.70
2018-03-29T16:32:25.750Z,79.40
2018-03-29T16:34:53.271Z,79.40
2018-03-29T16:37:21.184Z,79.50
2018-03-29T16:39:48.733Z,79.50
2018-03-29T16:42:16.321Z,79.60
2018-03-29T16:44:43.834Z,79.60
2018-03-29T16:47:11.344Z,79.40
2018-03-29T16:49:38.848Z,78.90
2018-03-29T16:52:06.360Z,78.90
2018-03-29T16:54:33.900Z,78.60
2018-03-29T16:57:01.391Z,79.10
2018-03-29T16:59:29.321Z,80.20
2018-03-29T17:01:56.914Z,80.20
2018-03-29T17:04:24.445Z,80.40
2018-03-29T17:06:51.951Z,80.80
2018-03-29T17:09:19.889Z,80.60
2018-03-29T17:11:47.388Z,80.60
2018-03-29T17:14:14.924Z,80.90
2018-03-29T17:16:42.450Z,80.90
2018-03-29T17:19:09.963Z,80.90
2018-03-29T17:21:37.479Z,81.20
2018-03-29T17:24:04.991Z,81.50
2018-03-29T17:26:32.492Z,82.00
2018-03-29T17:29:00.027Z,81.70
2018-03-29T17:31:27.548Z,82.50
2018-03-29T17:33:55.045Z,81.90
2018-03-29T17:36:22.541Z,82.20
2018-03-29T17:38:50.448Z,82.40
2018-03-29T17:41:17.959Z,82.40
2018-03-29T17:43:45.458Z,82.60
2018-03-29T17:46:13.026Z,82.80
2018-03-29T17:48:40.556Z,82.90
2018-03-29T17:51:08.068Z,82.90
2018-03-29T17:53:35.600Z,83.10
2018-03-29T17:56:03.103Z,83.50
2018-03-29T17:58:31.002Z,83.80
2018-03-29T18:00:58.509Z,83.80
2018-03-29T18:03:26.008Z,84.20
2018-03-29T18:05:53.919Z,84.90
2018-03-29T18:08:21.485Z,84.90
2018-03-29T18:10:48.985Z,85.20
2018-03-29T18:13:16.616Z,85.60
2018-03-29T18:15:44.119Z,86.20
2018-03-29T18:18:11.636Z,86.20
2018-03-29T18:20:39.148Z,86.80
2018-03-29T18:23:06.648Z,86.90
2018-03-29T18:25:34.155Z,87.00
2018-03-29T18:28:01.663Z,87.20
2018-03-29T18:30:29.198Z,87.30
2018-03-29T18:32:56.744Z,87.10
2018-03-29T18:35:24.227Z,88.00
2018-03-29T18:37:51.729Z,88.60
2018-03-29T18:40:19.260Z,88.30
2018-03-29T18:42:46.751Z,89.30
2018-03-29T18:45:14.238Z,89.50
2018-03-29T18:47:41.741Z,89.30
2018-03-29T18:50:09.371Z,89.50
2018-03-29T18:52:37.599Z,89.80
2018-03-29T18:55:05.110Z,90.10
2018-03-29T18:57:33.480Z,90.90
2018-03-29T19:00:00.983Z,90.60
2018-03-29T19:02:28.477Z,90.20
2018-03-29T19:04:56.160Z,91.10
2018-03-29T19:07:23.660Z,91.20
2018-03-29T19:09:51.552Z,91.50
2018-03-29T19:12:19.081Z,91.50
2018-03-29T19:14:46.966Z,90.80
2018-03-29T19:17:14.479Z,90.80
2018-03-29T19:19:41.976Z,90.50
2018-03-29T19:22:09.549Z,90.90
2018-03-29T19:24:37.114Z,91.60
2018-03-29T19:27:04.630Z,91.50
2018-03-29T19:29:33.095Z,92.50
2018-03-29T19:32:00.592Z,92.50
2018-03-29T19:34:31.309Z,92.50
2018-03-29T19:36:58.818Z,92.20
2018-03-29T19:39:26.342Z,92.60
2018-03-29T19:41:53.852Z,93.20
2018-03-29T19:44:21.400Z,93.90
2018-03-29T19:46:48.891Z,94.30
2018-03-29T19:49:16.393Z,94.00
2018-03-29T19:51:43.920Z,93.90
2018-03-29T19:54:11.440Z,93.70
2018-03-29T19:56:38.959Z,94.60
2018-03-29T19:59:06.463Z,94.20
2018-03-29T20:01:33.959Z,95.00
2018-03-29T20:04:01.462Z,95.50
2018-03-29T20:06:28.983Z,95.10
2018-03-29T20:08:56.511Z,95.10
2018-03-29T20:11:24.406Z,95.60
2018-03-29T20:13:51.931Z,95.60
2018-03-29T20:16:19.824Z,95.10
2018-03-29T20:18:47.328Z,95.10
2018-03-29T20:21:14.889Z,95.40
2018-03-29T20:23:42.376Z,95.10
2018-03-29T20:26:09.882Z,95.40
2018-03-29T20:28:37.399Z,95.50
2018-03-29T20:31:04.919Z,95.40
2018-03-29T20:33:32.440Z,95.00
2018-03-29T20:35:59.943Z,95.30
2018-03-29T20:38:27.525Z,95.30
2018-03-29T20:40:55.484Z,95.60
2018-03-29T20:43:23.397Z,95.40
2018-03-29T20:45:50.907Z,95.40
2018-03-29T20:48:18.855Z,95.40
2018-03-29T20:50:46.388Z,95.40
2018-03-29T20:53:13.907Z,96.10
2018-03-29T20:55:41.836Z,95.20
2018-03-29T20:58:09.323Z,95.30
2018-03-29T21:00:37.232Z,96.10
2018-03-29T21:03:04.760Z,96.10
2018-03-29T21:05:32.682Z,95.70
2018-03-29T21:08:00.194Z,95.70
2018-03-29T21:10:28.543Z,96.90
2018-03-29T21:12:56.490Z,97.00
2018-03-29T21:15:24.132Z,97.00
2018-03-29T21:17:51.642Z,97.00
2018-03-29T21:20:19.548Z,97.00
2018-03-29T21:22:47.164Z,97.00
2018-03-29T21:25:15.080Z,97.00
2018-03-29T21:27:42.585Z,97.00
2018-03-29T21:30:10.496Z,97.00
2018-03-29T21:32:38.017Z,97.00
2018-03-29T21:35:05.623Z,97.00
2018-03-29T21:37:33.115Z,97.00
2018-03-29T21:40:00.623Z,97.00
2018-03-29T21:42:28.205Z,97.00
2018-03-29T21:44:55.687Z,97.00
2018-03-29T21:47:23.642Z,97.00
2018-03-29T21:49:51.134Z,97.00
2018-03-29T21:52:19.047Z,97.00
2018-03-29T21:54:46.565Z,97.00
2018-03-29T21:57:14.468Z,97.00
2018-03-29T21:59:41.974Z,97.00
2018-03-29T22:02:09.894Z,97.00
2018-03-29T22:04:37.442Z,97.00
2018-03-29T22:07:04.942Z,97.00
2018-03-29T22:09:32.442Z,97.00
2018-03-29T22:11:59.953Z,97.00
2018-03-29T22:14:27.464Z,97.00
2018-03-29T22:16:54.974Z,97.00
2018-03-29T22:19:22.500Z,97.00
2018-03-29T22:21:50.007Z,97.00
2018-03-29T22:24:17.908Z,97.00
2018-03-29T22:26:45.467Z,97.00
2018-03-29T22:29:13.011Z,97.00
2018-03-29T22:31:40.538Z,97.00
2018-03-29T22:34:08.505Z,97.00
2018-03-29T22:36:36.412Z,97.00
2018-03-29T22:39:03.939Z,97.00
2018-03-29T22:41:31.868Z,97.00
2018-03-29T22:43:59.391Z,97.00
2018-03-29T22:46:26.918Z,97.00
2018-03-29T22:48:54.519Z,97.00
2018-03-29T22:51:22.468Z,97.00
2018-03-29T22:53:51.786Z,97.00
2018-03-29T22:56:19.429Z,97.00
2018-03-29T22:58:46.963Z,97.00
2018-03-29T23:01:14.882Z,97.00
2018-03-29T23:03:42.375Z,97.00
2018-03-29T23:06:09.900Z,97.00
2018-03-29T23:08:37.383Z,97.00
2018-03-29T23:11:04.941Z,97.00
2018-03-29T23:13:32.453Z,97.00
2018-03-29T23:16:00.030Z,97.00
2018-03-29T23:18:27.528Z,97.00
2018-03-29T23:20:55.090Z,97.00
2018-03-29T23:23:22.612Z,97.00
2018-03-29T23:25:50.133Z,97.00
2018-03-29T23:28:17.657Z,97.00
2018-03-29T23:30:45.199Z,97.00
2018-03-29T23:33:12.709Z,97.00
2018-03-29T23:35:40.241Z,97.00
2018-03-29T23:38:07.789Z,97.00
2018-03-29T23:40:35.318Z,97.00
2018-03-29T23:43:03.971Z,97.00
2018-03-29T23:45:31.542Z,97.00
2018-03-29T23:47:59.096Z,97.00
2018-03-29T23:50:26.606Z,97.00
2018-03-29T23:52:54.108Z,97.00
2018-03-29T23:55:21.619Z,97.00
2018-03-29T23:57:55.128Z,97.00
